Time;durP1;ratioP1;P1;durP2;ratioP2;P2;SDS_P1;SDS_P2;PMS_P1;PMS_P2;Temp;Humidity;BMP_temperature;BMP_pressure;BME280_temperature;BME280_humidity;BME280_pressure;Samples;Min_cycle;Max_cycle;Signal;HPM_P1;HPM_P2
2023/12/09 00:00:09;;;;;;;43.47;18.48;;;7.80;99.90;;;;;;5000981;28;20061;-50
2023/12/09 00:02:35;;;;;;;47.58;19.27;;;7.80;99.90;;;;;;5000639;28;20602;-34
2023/12/09 00:05:02;;;;;;;43.47;19.27;;;7.80;99.90;;;;;;5001576;28;20418;-34
2023/12/09 00:07:27;;;;;;;46.85;17.65;;;7.80;99.90;;;;;;5001634;28;20046;-34
2023/12/09 00:09:53;;;;;;;40.75;18.58;;;7.80;99.90;;;;;;5001546;28;20056;-45
2023/12/09 00:12:18;;;;;;;40.90;17.67;;;7.80;99.90;;;;;;5000807;28;20062;-34
2023/12/09 00:14:44;;;;;;;41.60;17.67;;;7.80;99.90;;;;;;5000772;28;20136;-34
2023/12/09 00:17:10;;;;;;;47.03;18.77;;;7.80;99.90;;;;;;5001686;28;20049;-34
2023/12/09 00:19:36;;;;;;;43.95;17.90;;;7.80;99.90;;;;;;4998958;28;20053;-34
2023/12/09 00:22:02;;;;;;;41.08;17.73;;;7.80;99.90;;;;;;5001237;28;20049;-34
2023/12/09 00:24:27;;;;;;;42.20;17.80;;;7.80;99.90;;;;;;5000379;28;20347;-34
2023/12/09 00:26:53;;;;;;;41.17;18.55;;;7.80;99.90;;;;;;5000907;28;20064;-35
2023/12/09 00:29:19;;;;;;;42.45;18.52;;;7.80;99.90;;;;;;4997548;28;20046;-34
2023/12/09 00:31:44;;;;;;;41.78;18.15;;;7.80;99.90;;;;;;5000579;28;20476;-34
2023/12/09 00:34:10;;;;;;;39.58;17.40;;;7.80;99.90;;;;;;5000230;28;20104;-34
2023/12/09 00:36:36;;;;;;;44.35;18.45;;;7.80;99.90;;;;;;4999561;28;20046;-34
2023/12/09 00:39:01;;;;;;;46.10;17.70;;;7.80;99.90;;;;;;4997511;28;20058;-34
2023/12/09 00:41:27;;;;;;;42.08;18.42;;;7.80;99.90;;;;;;5001419;28;20117;-34
2023/12/09 00:43:53;;;;;;;38.17;17.52;;;7.80;99.90;;;;;;5000934;28;20046;-34
2023/12/09 00:46:21;;;;;;;39.40;17.08;;;7.80;99.90;;;;;;4998374;28;20041;-34
2023/12/09 00:48:47;;;;;;;42.92;17.90;;;7.80;99.90;;;;;;4999740;28;20119;-34
2023/12/09 00:51:13;;;;;;;44.10;17.08;;;7.80;99.90;;;;;;5014694;28;20054;-34
2023/12/09 00:53:39;;;;;;;43.42;15.82;;;7.80;99.90;;;;;;5001103;28;20717;-34
2023/12/09 00:56:05;;;;;;;38.47;17.67;;;7.80;99.90;;;;;;5000132;28;20046;-34
2023/12/09 00:58:30;;;;;;;37.80;16.27;;;7.80;99.90;;;;;;4999560;28;20049;-35
2023/12/09 01:00:56;;;;;;;38.80;16.73;;;7.80;99.90;;;;;;5001992;28;20073;-35
2023/12/09 01:03:22;;;;;;;40.33;16.42;;;7.80;99.90;;;;;;5000164;28;20488;-43
2023/12/09 01:05:47;;;;;;;38.63;17.02;;;7.80;99.90;;;;;;5001870;28;20038;-35
2023/12/09 01:08:13;;;;;;;38.08;16.50;;;7.80;99.90;;;;;;5007882;28;20057;-35
2023/12/09 01:10:39;;;;;;;41.92;17.73;;;7.80;99.90;;;;;;5003292;28;20057;-35
2023/12/09 01:13:04;;;;;;;37.72;17.38;;;7.80;99.90;;;;;;5001036;28;20500;-35
2023/12/09 01:15:30;;;;;;;39.70;16.90;;;7.80;99.90;;;;;;4999836;28;20054;-36
2023/12/09 01:17:56;;;;;;;36.92;16.50;;;7.80;99.90;;;;;;5004166;28;20060;-35
2023/12/09 01:20:21;;;;;;;43.28;16.27;;;7.80;99.90;;;;;;5004625;28;20147;-43
2023/12/09 01:22:47;;;;;;;39.78;16.80;;;7.80;99.90;;;;;;5004162;28;20057;-33
2023/12/09 01:25:13;;;;;;;40.10;16.98;;;7.80;99.90;;;;;;5000119;28;20123;-34
2023/12/09 01:27:39;;;;;;;42.17;17.05;;;7.80;99.90;;;;;;4999910;28;20037;-35
2023/12/09 01:30:05;;;;;;;36.90;16.50;;;7.80;99.90;;;;;;5000460;28;20050;-34
2023/12/09 01:32:31;;;;;;;35.35;16.08;;;7.80;99.90;;;;;;5002220;28;20077;-35
2023/12/09 01:34:57;;;;;;;42.65;17.00;;;7.80;99.90;;;;;;5004689;28;20061;-35
2023/12/09 01:37:22;;;;;;;41.90;17.10;;;7.70;99.90;;;;;;5002807;28;20053;-35
2023/12/09 01:39:48;;;;;;;41.42;16.75;;;7.80;99.90;;;;;;5002791;28;20134;-34
2023/12/09 01:42:14;;;;;;;37.22;16.63;;;7.80;99.90;;;;;;5004322;28;20491;-34
2023/12/09 01:44:39;;;;;;;42.65;16.40;;;7.70;99.90;;;;;;5004941;28;20455;-34
2023/12/09 01:47:06;;;;;;;37.70;16.75;;;7.70;99.90;;;;;;5003982;28;20053;-34
2023/12/09 01:49:33;;;;;;;40.45;17.02;;;7.70;99.90;;;;;;5001889;28;20128;-34
2023/12/09 01:52:00;;;;;;;36.97;16.33;;;7.70;99.90;;;;;;5003323;28;20046;-34
2023/12/09 01:54:27;;;;;;;36.80;15.45;;;7.70;99.90;;;;;;5003008;28;20484;-33
2023/12/09 01:56:54;;;;;;;39.20;16.00;;;7.80;99.90;;;;;;5005869;28;20057;-34
2023/12/09 01:59:21;;;;;;;33.17;14.90;;;7.80;99.90;;;;;;5003402;28;20111;-34
2023/12/09 02:01:48;;;;;;;44.70;15.90;;;7.80;99.90;;;;;;5005314;28;20050;-34
2023/12/09 02:04:14;;;;;;;35.35;15.50;;;7.80;99.90;;;;;;5003819;28;20472;-34
2023/12/09 02:06:40;;;;;;;36.33;15.23;;;7.80;99.90;;;;;;5003457;28;20042;-34
2023/12/09 02:09:06;;;;;;;39.22;15.65;;;7.70;99.90;;;;;;5003278;28;20042;-34
2023/12/09 02:11:50;;;;;;;39.25;15.60;;;7.70;99.90;;;;;;5003344;28;20057;-34
2023/12/09 02:14:27;;;;;;;44.35;15.80;;;7.70;99.90;;;;;;5001383;28;20169;-34
2023/12/09 02:17:00;;;;;;;35.35;14.48;;;7.70;99.90;;;;;;5000128;28;20492;-33
2023/12/09 02:19:27;;;;;;;35.03;14.20;;;7.60;99.90;;;;;;5001208;28;20050;-34
2023/12/09 02:21:59;;;;;;;36.53;15.38;;;7.60;99.90;;;;;;4999866;28;20103;-34
2023/12/09 02:24:26;;;;;;;;;;;7.60;99.90;;;;;;5003157;28;20038;-34
2023/12/09 02:26:52;;;;;;;35.00;14.98;;;7.60;99.90;;;;;;5006149;28;19921;-45
2023/12/09 02:29:19;;;;;;;34.58;14.43;;;7.50;99.90;;;;;;5002457;28;20061;-33
2023/12/09 02:31:50;;;;;;;35.75;14.90;;;7.50;99.90;;;;;;5002875;28;20145;-34
2023/12/09 02:34:16;;;;;;;41.13;15.00;;;7.40;99.90;;;;;;5004301;28;20054;-33
2023/12/09 02:36:45;;;;;;;38.80;14.75;;;7.40;99.90;;;;;;5002329;28;20065;-33
2023/12/09 02:39:13;;;;;;;35.55;14.35;;;7.40;99.90;;;;;;5002600;28;20520;-33
2023/12/09 02:41:41;;;;;;;41.08;15.43;;;7.40;99.90;;;;;;5002907;28;20140;-33
2023/12/09 02:44:07;;;;;;;36.45;14.65;;;7.30;99.90;;;;;;5004462;28;20073;-33
2023/12/09 02:46:33;;;;;;;32.30;14.63;;;7.30;99.90;;;;;;5003074;28;20519;-34
2023/12/09 02:49:02;;;;;;;46.90;16.17;;;7.30;99.90;;;;;;5011364;28;20080;-33
2023/12/09 02:51:28;;;;;;;39.00;14.98;;;7.20;99.90;;;;;;5004683;28;20050;-33
2023/12/09 02:53:54;;;;;;;38.75;14.98;;;7.20;99.90;;;;;;5004275;28;20462;-33
2023/12/09 02:56:20;;;;;;;40.13;14.48;;;7.20;99.90;;;;;;5004792;28;20129;-33
2023/12/09 02:58:46;;;;;;;36.75;14.73;;;7.20;99.90;;;;;;5003471;28;20045;-33
2023/12/09 03:01:12;;;;;;;37.50;14.77;;;7.10;99.90;;;;;;5003472;28;20567;-35
2023/12/09 03:03:37;;;;;;;37.72;14.07;;;7.10;99.90;;;;;;5000193;28;20053;-34
2023/12/09 03:06:03;;;;;;;43.17;14.35;;;7.10;99.90;;;;;;5006615;28;20053;-44
2023/12/09 03:08:30;;;;;;;34.90;14.20;;;7.10;99.90;;;;;;5001387;28;20045;-34
2023/12/09 03:10:55;;;;;;;31.00;13.88;;;7.20;99.90;;;;;;5008412;28;20050;-34
2023/12/09 03:13:21;;;;;;;36.53;14.45;;;7.20;99.90;;;;;;5004765;28;20060;-33
2023/12/09 03:15:46;;;;;;;39.65;14.18;;;7.30;99.90;;;;;;5003428;28;20104;-34
2023/12/09 03:18:12;;;;;;;39.22;14.18;;;7.30;99.90;;;;;;5004237;28;20049;-34
2023/12/09 03:20:38;;;;;;;32.42;12.60;;;7.30;99.90;;;;;;5002155;28;20066;-34
2023/12/09 03:23:03;;;;;;;40.30;13.50;;;7.30;99.90;;;;;;5003851;28;20061;-35
2023/12/09 03:25:29;;;;;;;30.58;13.80;;;7.30;99.90;;;;;;5002885;28;20411;-35
2023/12/09 03:27:55;;;;;;;33.08;12.88;;;7.40;99.90;;;;;;5007543;28;20414;-34
2023/12/09 03:30:21;;;;;;;35.25;12.93;;;7.40;99.90;;;;;;5005267;28;20845;-34
2023/12/09 03:32:46;;;;;;;35.72;12.80;;;7.40;99.90;;;;;;5005144;28;20058;-33
2023/12/09 03:35:12;;;;;;;37.42;14.20;;;7.40;99.90;;;;;;5002725;28;20072;-34
2023/12/09 03:37:38;;;;;;;34.65;12.80;;;7.40;99.90;;;;;;5001733;28;20518;-34
2023/12/09 03:40:05;;;;;;;32.22;13.05;;;7.30;99.90;;;;;;5003726;28;20058;-34
2023/12/09 03:42:30;;;;;;;32.42;13.30;;;7.40;99.90;;;;;;5003774;28;20064;-34
2023/12/09 03:44:56;;;;;;;33.53;12.95;;;7.40;99.90;;;;;;5002874;28;20410;-33
2023/12/09 03:47:22;;;;;;;31.15;13.10;;;7.30;99.90;;;;;;5002739;28;20527;-34
2023/12/09 03:49:47;;;;;;;33.40;13.27;;;7.40;99.90;;;;;;5004325;28;20090;-34
2023/12/09 03:52:13;;;;;;;34.40;13.13;;;7.30;99.90;;;;;;5004573;28;20081;-34
2023/12/09 03:54:39;;;;;;;34.72;12.57;;;7.30;99.90;;;;;;5001636;28;20192;-34
2023/12/09 03:57:04;;;;;;;33.03;14.20;;;7.30;99.90;;;;;;5003222;28;20123;-34
2023/12/09 03:59:30;;;;;;;32.92;13.07;;;7.30;99.90;;;;;;5003770;28;20581;-34
2023/12/09 04:01:56;;;;;;;35.28;12.75;;;7.40;99.90;;;;;;5001495;28;20061;-35
2023/12/09 04:04:22;;;;;;;31.63;12.75;;;7.40;99.90;;;;;;4999815;28;20116;-34
2023/12/09 04:06:49;;;;;;;29.88;12.40;;;7.30;99.90;;;;;;5002056;28;20046;-34
2023/12/09 04:09:16;;;;;;;31.40;11.88;;;7.30;99.90;;;;;;5001006;28;20058;-34
2023/12/09 04:11:43;;;;;;;30.10;13.20;;;7.30;99.90;;;;;;5003689;28;20411;-34
2023/12/09 04:14:09;;;;;;;31.80;12.77;;;7.30;99.90;;;;;;5001811;28;20064;-34
2023/12/09 04:16:34;;;;;;;30.00;12.43;;;7.30;99.90;;;;;;5004849;28;21273;-35
2023/12/09 04:19:00;;;;;;;31.58;10.98;;;7.40;99.90;;;;;;4999488;28;20050;-34
2023/12/09 04:21:26;;;;;;;28.30;11.45;;;7.30;99.90;;;;;;5002494;28;20095;-34
2023/12/09 04:23:51;;;;;;;29.88;11.98;;;7.30;99.90;;;;;;5003238;28;20072;-34
2023/12/09 04:26:17;;;;;;;27.13;11.85;;;7.30;99.90;;;;;;5003799;28;20546;-34
2023/12/09 04:28:43;;;;;;;28.40;12.50;;;7.30;99.90;;;;;;5002523;28;20116;-34
2023/12/09 04:31:08;;;;;;;32.92;11.63;;;7.40;99.90;;;;;;5002772;28;20073;-34
2023/12/09 04:33:34;;;;;;;32.15;11.48;;;7.30;99.90;;;;;;5002003;28;20096;-34
2023/12/09 04:36:00;;;;;;;32.15;11.90;;;7.30;99.90;;;;;;4999911;28;20042;-34
2023/12/09 04:38:25;;;;;;;29.45;11.07;;;7.40;99.90;;;;;;5001181;28;20054;-34
2023/12/09 04:40:51;;;;;;;26.48;10.63;;;7.30;99.90;;;;;;5002128;28;20078;-34
2023/12/09 04:43:16;;;;;;;30.45;11.13;;;7.30;99.90;;;;;;5004750;28;20123;-34
2023/12/09 04:45:43;;;;;;;28.50;10.73;;;7.30;99.90;;;;;;5003769;28;20385;-34
2023/12/09 04:48:08;;;;;;;28.45;11.57;;;7.30;99.90;;;;;;5003794;28;20165;-35
2023/12/09 04:50:34;;;;;;;33.78;11.90;;;7.30;99.90;;;;;;5000740;28;20094;-39
2023/12/09 04:52:59;;;;;;;30.60;11.18;;;7.30;99.90;;;;;;5004946;28;20046;-34
2023/12/09 04:55:26;;;;;;;29.05;11.55;;;7.30;99.90;;;;;;5003309;28;20081;-34
2023/12/09 04:57:52;;;;;;;28.40;12.18;;;7.30;99.90;;;;;;4999830;28;20056;-34
2023/12/09 05:00:17;;;;;;;37.70;12.05;;;7.30;99.90;;;;;;5002857;28;20404;-34
2023/12/09 05:02:44;;;;;;;29.83;11.02;;;7.30;99.90;;;;;;5000810;28;20140;-34
2023/12/09 05:05:09;;;;;;;34.22;11.20;;;7.20;99.90;;;;;;5008731;28;20056;-34
2023/12/09 05:07:35;;;;;;;34.70;12.30;;;7.20;99.90;;;;;;5000500;28;20046;-34
2023/12/09 05:10:01;;;;;;;33.78;11.85;;;7.20;99.90;;;;;;5004298;28;20058;-36
2023/12/09 05:12:27;;;;;;;31.70;11.65;;;7.20;99.90;;;;;;5002407;28;20072;-34
2023/12/09 05:14:53;;;;;;;32.58;11.13;;;7.20;99.90;;;;;;5000913;28;20500;-34
2023/12/09 05:17:18;;;;;;;30.35;11.63;;;7.20;99.90;;;;;;5002272;28;21455;-34
2023/12/09 05:19:44;;;;;;;25.95;9.57;;;7.20;99.90;;;;;;5002093;28;20056;-34
2023/12/09 05:22:11;;;;;;;28.00;11.18;;;7.10;99.90;;;;;;5002602;28;20050;-34
2023/12/09 05:24:37;;;;;;;26.80;10.98;;;7.10;99.90;;;;;;5002598;28;20411;-34
2023/12/09 05:27:03;;;;;;;28.85;10.73;;;7.10;99.90;;;;;;5001723;28;20052;-35
2023/12/09 05:29:29;;;;;;;31.23;10.90;;;7.00;99.90;;;;;;4999889;28;20068;-34
2023/12/09 05:31:54;;;;;;;23.98;11.48;;;7.00;99.90;;;;;;5001428;28;20108;-34
2023/12/09 05:34:20;;;;;;;28.38;11.88;;;7.00;99.90;;;;;;4999866;28;20057;-34
2023/12/09 05:36:46;;;;;;;26.77;10.32;;;7.00;99.90;;;;;;4996340;28;20516;-34
2023/12/09 05:39:11;;;;;;;33.20;10.90;;;6.90;99.90;;;;;;5018476;28;20058;-34
2023/12/09 05:41:40;;;;;;;28.83;10.35;;;6.80;99.90;;;;;;5000357;28;20053;-34
2023/12/09 05:44:06;;;;;;;27.80;11.25;;;6.80;99.90;;;;;;5003519;28;20054;-34
2023/12/09 05:46:32;;;;;;;23.17;10.48;;;6.80;99.90;;;;;;5001574;28;20046;-40
2023/12/09 05:48:57;;;;;;;30.90;11.20;;;6.70;99.90;;;;;;5000743;28;20077;-34
2023/12/09 05:51:23;;;;;;;24.20;10.77;;;6.70;99.90;;;;;;5004337;28;20054;-34
2023/12/09 05:53:49;;;;;;;29.08;11.13;;;6.70;99.90;;;;;;5003214;28;20416;-34
2023/12/09 05:56:14;;;;;;;30.85;11.48;;;6.70;99.90;;;;;;5006513;28;20046;-34
2023/12/09 05:58:40;;;;;;;24.15;9.90;;;6.70;99.90;;;;;;5002827;28;20058;-34
2023/12/09 06:01:06;;;;;;;30.05;11.07;;;6.70;99.90;;;;;;5002786;28;20461;-34
2023/12/09 06:03:32;;;;;;;31.40;10.73;;;6.70;99.90;;;;;;5001035;28;20300;-46
2023/12/09 06:05:58;;;;;;;26.63;10.75;;;6.70;99.90;;;;;;5003269;28;20530;-34
2023/12/09 06:08:24;;;;;;;25.33;11.23;;;6.70;99.90;;;;;;5001959;28;20151;-35
2023/12/09 06:10:50;;;;;;;24.42;9.88;;;6.80;99.90;;;;;;5004819;28;20078;-34
2023/12/09 06:13:16;;;;;;;28.92;9.65;;;6.80;99.90;;;;;;5002741;28;20080;-34
2023/12/09 06:15:41;;;;;;;27.88;10.57;;;6.80;99.90;;;;;;5002364;28;20496;-34
2023/12/09 06:18:07;;;;;;;29.75;10.27;;;6.80;99.90;;;;;;5003447;28;20503;-34
2023/12/09 06:20:33;;;;;;;27.42;9.57;;;6.80;99.90;;;;;;5005504;28;20070;-35
2023/12/09 06:22:59;;;;;;;28.98;10.00;;;6.90;99.90;;;;;;5007340;28;20052;-34
2023/12/09 06:25:25;;;;;;;24.85;10.05;;;6.90;99.90;;;;;;5006655;28;20053;-34
2023/12/09 06:27:50;;;;;;;23.35;9.23;;;6.90;99.90;;;;;;5009784;28;20065;-34
2023/12/09 06:30:16;;;;;;;26.80;8.95;;;6.90;99.90;;;;;;5005319;28;20053;-34
2023/12/09 06:32:43;;;;;;;23.13;8.15;;;6.90;99.90;;;;;;5002030;28;20389;-34
2023/12/09 06:35:09;;;;;;;25.27;8.65;;;6.90;99.90;;;;;;5000582;28;20137;-34
2023/12/09 06:37:35;;;;;;;29.17;9.07;;;7.00;99.90;;;;;;5003290;28;20133;-35
2023/12/09 06:40:00;;;;;;;24.42;8.60;;;7.00;99.90;;;;;;5003721;28;20062;-34
2023/12/09 06:42:26;;;;;;;23.80;8.55;;;7.00;99.90;;;;;;5005535;28;20054;-34
2023/12/09 06:44:52;;;;;;;26.08;7.65;;;7.00;99.90;;;;;;5006142;28;20464;-34
2023/12/09 06:47:17;;;;;;;23.40;8.52;;;7.00;99.90;;;;;;5006237;28;20045;-34
2023/12/09 06:49:43;;;;;;;22.48;7.88;;;7.00;99.90;;;;;;5001363;28;20519;-34
2023/12/09 06:52:09;;;;;;;21.70;8.40;;;7.00;99.90;;;;;;5006612;28;21723;-35
2023/12/09 06:54:34;;;;;;;22.50;8.48;;;7.00;99.90;;;;;;5005439;28;20108;-35
2023/12/09 06:57:00;;;;;;;27.75;8.23;;;7.00;99.90;;;;;;5007846;28;20086;-34
2023/12/09 06:59:26;;;;;;;25.15;7.90;;;7.00;99.90;;;;;;5004517;28;20062;-34
2023/12/09 07:01:56;;;;;;;25.70;8.85;;;7.00;99.90;;;;;;5004354;28;20050;-34
2023/12/09 07:04:21;;;;;;;22.60;8.43;;;7.00;99.90;;;;;;5004504;28;20544;-34
2023/12/09 07:06:47;;;;;;;26.70;7.55;;;7.00;99.90;;;;;;5005019;28;20111;-34
2023/12/09 07:09:12;;;;;;;23.17;8.90;;;7.00;99.90;;;;;;5003181;28;20053;-34
2023/12/09 07:11:38;;;;;;;22.50;8.52;;;7.00;99.90;;;;;;5002153;28;20491;-35
2023/12/09 07:14:05;;;;;;;32.83;9.88;;;7.00;99.90;;;;;;5002379;28;20048;-35
2023/12/09 07:16:31;;;;;;;24.85;8.95;;;7.00;99.90;;;;;;5001789;28;20068;-35
2023/12/09 07:18:59;;;;;;;23.08;8.63;;;6.90;99.90;;;;;;5004360;28;20058;-34
2023/12/09 07:21:28;;;;;;;25.85;9.63;;;6.90;99.90;;;;;;5006028;28;20141;-34
2023/12/09 07:23:55;;;;;;;25.85;9.13;;;6.90;99.90;;;;;;5005099;28;20056;-34
2023/12/09 07:26:21;;;;;;;27.55;9.18;;;6.90;99.90;;;;;;5006725;28;20045;-34
2023/12/09 07:28:47;;;;;;;26.92;8.80;;;6.80;99.90;;;;;;5008190;28;20053;-34
2023/12/09 07:31:13;;;;;;;27.50;8.50;;;6.90;99.90;;;;;;5001585;28;20057;-35
2023/12/09 07:33:39;;;;;;;25.80;7.90;;;6.80;99.90;;;;;;5004024;28;20065;-38
2023/12/09 07:36:05;;;;;;;22.50;7.50;;;6.80;99.90;;;;;;5003792;28;20157;-34
2023/12/09 07:38:31;;;;;;;24.25;8.25;;;6.80;99.90;;;;;;5007791;28;20049;-34
2023/12/09 07:40:57;;;;;;;20.23;7.65;;;6.80;99.90;;;;;;5001909;28;20504;-34
2023/12/09 07:43:22;;;;;;;19.83;7.20;;;6.80;99.90;;;;;;5006462;28;20404;-34
2023/12/09 07:45:48;;;;;;;24.58;7.47;;;6.80;99.90;;;;;;5003527;28;20132;-34
2023/12/09 07:48:14;;;;;;;18.40;6.68;;;6.80;99.90;;;;;;5005886;28;20152;-34
2023/12/09 07:50:40;;;;;;;19.08;6.43;;;6.80;99.90;;;;;;5005364;28;20038;-35
2023/12/09 07:53:06;;;;;;;21.83;6.90;;;6.80;99.90;;;;;;5003155;28;20049;-42
2023/12/09 07:55:32;;;;;;;15.07;6.72;;;6.70;99.90;;;;;;5002962;28;20068;-34
2023/12/09 07:57:57;;;;;;;20.95;6.32;;;6.80;99.90;;;;;;5000887;28;20050;-34
2023/12/09 08:00:26;;;;;;;20.77;6.10;;;6.70;99.90;;;;;;5003240;28;20495;-34
2023/12/09 08:02:55;;;;;;;21.67;6.65;;;6.70;99.90;;;;;;5002802;28;20077;-34
2023/12/09 08:05:24;;;;;;;17.35;6.07;;;6.70;99.90;;;;;;5002417;28;20053;-34
2023/12/09 08:07:50;;;;;;;21.02;6.40;;;6.70;99.90;;;;;;5001598;28;20054;-34
2023/12/09 08:10:16;;;;;;;17.80;5.90;;;6.70;99.90;;;;;;5002300;28;20397;-34
2023/12/09 08:12:42;;;;;;;14.88;5.30;;;6.60;99.90;;;;;;5006161;28;20065;-35
2023/12/09 08:15:08;;;;;;;18.80;6.70;;;6.60;99.90;;;;;;5008638;28;20061;-34
2023/12/09 08:17:34;;;;;;;18.65;6.57;;;6.60;99.90;;;;;;5001081;28;20050;-34
2023/12/09 08:20:00;;;;;;;23.15;6.00;;;6.60;99.90;;;;;;5003266;28;20385;-33
2023/12/09 08:22:26;;;;;;;20.95;5.85;;;6.60;99.90;;;;;;5003466;28;20108;-33
2023/12/09 08:24:52;;;;;;;18.98;5.50;;;6.50;99.90;;;;;;5003948;28;20061;-34
2023/12/09 08:27:17;;;;;;;19.10;5.50;;;6.50;99.90;;;;;;5004003;28;20042;-33
2023/12/09 08:29:44;;;;;;;22.23;5.70;;;6.50;99.90;;;;;;5003530;28;20058;-35
2023/12/09 08:32:10;;;;;;;16.02;6.35;;;6.50;99.90;;;;;;5001563;28;20385;-44
2023/12/09 08:34:35;;;;;;;22.77;6.13;;;6.50;99.90;;;;;;5001428;28;20106;-33
2023/12/09 08:37:01;;;;;;;19.42;5.20;;;6.50;99.90;;;;;;5002234;28;20049;-33
2023/12/09 08:39:27;;;;;;;16.15;5.20;;;6.50;99.90;;;;;;5002995;28;20136;-35
2023/12/09 08:41:52;;;;;;;20.40;5.78;;;6.50;99.90;;;;;;5003080;28;20373;-33
2023/12/09 08:44:18;;;;;;;18.75;5.05;;;6.50;99.90;;;;;;4999693;28;20077;-33
2023/12/09 08:46:44;;;;;;;13.85;4.60;;;6.60;99.90;;;;;;5002217;28;20477;-35
2023/12/09 08:49:09;;;;;;;16.75;5.15;;;6.60;99.90;;;;;;5001271;28;20046;-34
2023/12/09 08:51:53;;;;;;;14.38;4.35;;;6.60;99.90;;;;;;4999558;28;20045;-33
2023/12/09 08:54:19;;;;;;;15.82;4.65;;;6.60;99.90;;;;;;5006067;28;20053;-36
2023/12/09 08:56:44;;;;;;;16.70;4.28;;;6.70;99.90;;;;;;5000606;28;20046;-35
2023/12/09 08:59:10;;;;;;;19.65;3.95;;;6.70;99.90;;;;;;5001696;28;20042;-33
2023/12/09 09:01:37;;;;;;;16.00;4.47;;;6.70;99.90;;;;;;5005216;28;20050;-34
2023/12/09 09:04:02;;;;;;;15.38;4.20;;;6.70;99.90;;;;;;4997971;28;20050;-33
2023/12/09 09:06:28;;;;;;;14.18;3.67;;;6.80;99.90;;;;;;5000827;28;20052;-34
2023/12/09 09:08:54;;;;;;;17.25;4.07;;;6.80;99.90;;;;;;5000168;28;20056;-34
2023/12/09 09:11:20;;;;;;;18.33;4.13;;;6.90;99.90;;;;;;4998601;28;20042;-33
2023/12/09 09:13:46;;;;;;;16.02;4.07;;;6.90;99.90;;;;;;5002254;28;20480;-34
2023/12/09 09:16:13;;;;;;;13.68;3.85;;;6.90;99.90;;;;;;4998707;28;20046;-34
2023/12/09 09:18:39;;;;;;;13.02;4.15;;;6.90;99.90;;;;;;5001971;28;20380;-34
2023/12/09 09:21:05;;;;;;;13.73;4.13;;;7.00;99.90;;;;;;4995663;28;20064;-34
2023/12/09 09:23:30;;;;;;;16.27;3.85;;;7.00;99.90;;;;;;5006896;28;20046;-34
2023/12/09 09:25:56;;;;;;;13.38;3.80;;;7.00;99.90;;;;;;5004599;28;20488;-34
2023/12/09 09:28:22;;;;;;;13.32;3.58;;;7.00;99.90;;;;;;5007900;28;20054;-34
2023/12/09 09:30:47;;;;;;;13.75;3.67;;;7.00;99.90;;;;;;5002685;28;20046;-35
2023/12/09 09:33:14;;;;;;;14.20;3.35;;;7.10;99.90;;;;;;5011468;28;20057;-38
2023/12/09 09:35:40;;;;;;;16.38;3.42;;;7.10;99.90;;;;;;5002497;28;20182;-34
2023/12/09 09:38:06;;;;;;;14.02;3.40;;;7.10;99.90;;;;;;5005899;28;20491;-34
2023/12/09 09:40:32;;;;;;;15.75;3.63;;;7.10;99.90;;;;;;5005476;28;20431;-34
2023/12/09 09:43:04;;;;;;;17.08;3.72;;;7.20;99.90;;;;;;5005762;28;20053;-34
2023/12/09 09:45:29;;;;;;;16.38;3.70;;;7.20;99.90;;;;;;5004645;28;20050;-35
2023/12/09 09:47:55;;;;;;;13.95;3.85;;;7.20;99.90;;;;;;5006036;28;20057;-34
2023/12/09 09:50:23;;;;;;;11.00;2.72;;;7.30;99.90;;;;;;5007713;28;20053;-35
2023/12/09 09:52:50;;;;;;;12.38;3.20;;;7.30;99.90;;;;;;5009863;28;20496;-35
2023/12/09 09:55:25;;;;;;;10.85;2.92;;;7.30;99.90;;;;;;5015851;28;20070;-34
2023/12/09 09:57:52;;;;;;;13.93;3.25;;;7.30;99.90;;;;;;5005347;28;20136;-34
2023/12/09 10:00:19;;;;;;;11.63;2.83;;;7.40;99.90;;;;;;5007938;28;20555;-34
2023/12/09 10:02:46;;;;;;;11.65;2.70;;;7.40;99.90;;;;;;5008885;28;20053;-39
2023/12/09 10:05:15;;;;;;;12.75;2.85;;;7.40;99.90;;;;;;5019361;28;20060;-34
2023/12/09 10:07:42;;;;;;;14.63;2.65;;;7.40;99.90;;;;;;5009494;28;20049;-35
2023/12/09 10:10:08;;;;;;;12.30;3.17;;;7.40;99.90;;;;;;5007550;28;20057;-34
2023/12/09 10:12:35;;;;;;;11.77;2.25;;;7.40;99.90;;;;;;5008391;28;20046;-35
2023/12/09 10:15:01;;;;;;;11.77;2.47;;;7.40;99.90;;;;;;5007824;28;20060;-34
2023/12/09 10:17:28;;;;;;;13.02;2.83;;;7.40;99.90;;;;;;5004045;28;20054;-35
2023/12/09 10:19:57;;;;;;;9.27;2.35;;;7.40;99.90;;;;;;5010343;28;20060;-36
2023/12/09 10:22:25;;;;;;;10.57;2.20;;;7.40;99.90;;;;;;5009104;28;20518;-37
2023/12/09 10:24:51;;;;;;;8.85;2.05;;;7.40;99.90;;;;;;5011027;28;20077;-35
2023/12/09 10:27:20;;;;;;;8.48;2.22;;;7.30;99.90;;;;;;5006235;28;20054;-34
2023/12/09 10:29:45;;;;;;;13.93;2.53;;;7.40;99.90;;;;;;5008880;28;20144;-44
2023/12/09 10:32:12;;;;;;;11.73;2.17;;;7.40;99.90;;;;;;5009960;28;20211;-34
2023/12/09 10:34:41;;;;;;;10.98;2.22;;;7.40;99.90;;;;;;4995742;28;20058;-34
2023/12/09 10:37:12;;;;;;;9.95;2.40;;;7.40;99.90;;;;;;5007538;28;20054;-34
2023/12/09 10:39:43;;;;;;;10.13;2.30;;;7.40;99.90;;;;;;5001288;28;20064;-34
2023/12/09 10:42:09;;;;;;;11.75;2.33;;;7.50;99.90;;;;;;5011455;28;20053;-34
2023/12/09 10:44:35;;;;;;;9.13;2.05;;;7.50;99.90;;;;;;5007282;28;20149;-34
2023/12/09 10:47:00;;;;;;;11.38;2.17;;;7.60;99.90;;;;;;5007860;28;20054;-34
2023/12/09 10:49:26;;;;;;;11.75;2.80;;;7.60;99.90;;;;;;5008807;28;20050;-34
2023/12/09 10:51:52;;;;;;;8.40;2.10;;;7.60;99.90;;;;;;5008367;28;20099;-34
2023/12/09 10:54:18;;;;;;;9.48;2.03;;;7.60;99.90;;;;;;5005185;28;20043;-33
2023/12/09 10:56:44;;;;;;;8.80;1.92;;;7.60;99.90;;;;;;5015706;28;20049;-34
2023/12/09 10:59:10;;;;;;;9.65;2.30;;;7.60;99.90;;;;;;5010252;28;20049;-35
2023/12/09 11:01:36;;;;;;;10.40;2.25;;;7.70;99.90;;;;;;5010327;28;20050;-49
2023/12/09 11:04:03;;;;;;;9.55;2.15;;;7.60;99.90;;;;;;5007977;28;20054;-34
2023/12/09 11:06:34;;;;;;;12.38;1.92;;;7.60;99.90;;;;;;5014204;28;20045;-34
2023/12/09 11:09:01;;;;;;;7.07;2.20;;;7.60;99.90;;;;;;5009031;28;20088;-35
2023/12/09 11:11:27;;;;;;;10.60;1.92;;;7.70;99.90;;;;;;5010048;28;20522;-33
2023/12/09 11:13:54;;;;;;;9.93;1.88;;;7.60;99.90;;;;;;5009905;28;20488;-34
2023/12/09 11:16:23;;;;;;;10.55;1.75;;;7.70;99.90;;;;;;5011054;28;20133;-34
2023/12/09 11:18:52;;;;;;;11.70;1.98;;;7.70;99.90;;;;;;5003420;28;20085;-34
2023/12/09 11:21:26;;;;;;;10.63;1.77;;;7.70;99.90;;;;;;5009562;28;20084;-34
2023/12/09 11:23:53;;;;;;;10.52;1.80;;;7.70;99.90;;;;;;5008228;28;20089;-34
2023/12/09 11:26:36;;;;;;;10.55;1.70;;;7.70;99.90;;;;;;5005335;28;20176;-35
2023/12/09 11:29:03;;;;;;;;;;;7.70;99.90;;;;;;5008329;28;20057;-34
2023/12/09 11:31:55;;;;;;;6.47;1.55;;;7.70;99.90;;;;;;5008580;28;19970;-33
2023/12/09 11:34:22;;;;;;;8.37;1.93;;;7.70;99.90;;;;;;5004151;28;20042;-34
2023/12/09 11:36:52;;;;;;;8.85;1.90;;;7.70;99.90;;;;;;5032337;28;20104;-34
2023/12/09 11:39:19;;;;;;;8.55;1.40;;;7.70;99.90;;;;;;4996278;28;20056;-36
2023/12/09 11:41:46;;;;;;;6.70;1.58;;;7.70;99.90;;;;;;5021651;28;20100;-34
2023/12/09 11:44:13;;;;;;;12.95;1.83;;;7.70;99.90;;;;;;5010565;28;20045;-39
2023/12/09 11:46:39;;;;;;;6.63;1.33;;;7.70;99.90;;;;;;5008488;28;20042;-35
2023/12/09 11:49:06;;;;;;;6.97;1.80;;;7.70;99.90;;;;;;5010116;28;20053;-35
2023/12/09 11:51:36;;;;;;;8.80;2.17;;;7.80;99.90;;;;;;5007191;28;20052;-34
2023/12/09 11:54:07;;;;;;;6.70;1.65;;;7.70;99.90;;;;;;5007210;28;20070;-34
2023/12/09 11:56:33;;;;;;;4.72;1.50;;;7.70;99.90;;;;;;5007148;28;20049;-34
2023/12/09 11:58:59;;;;;;;7.07;1.67;;;7.70;99.90;;;;;;5005993;28;20301;-35
2023/12/09 12:01:27;;;;;;;7.88;1.90;;;7.70;99.90;;;;;;5006120;28;20451;-35
2023/12/09 12:03:53;;;;;;;7.80;2.22;;;7.70;99.90;;;;;;5008977;28;20057;-35
2023/12/09 12:06:21;;;;;;;8.45;1.80;;;7.70;99.90;;;;;;5007470;28;20420;-34
2023/12/09 12:08:48;;;;;;;8.77;1.98;;;7.70;99.90;;;;;;5010657;28;20069;-34
2023/12/09 12:11:18;;;;;;;8.70;2.05;;;7.70;99.90;;;;;;5010383;28;20145;-34
2023/12/09 12:13:44;;;;;;;5.10;1.85;;;7.70;99.90;;;;;;5004899;28;20058;-34
2023/12/09 12:16:11;;;;;;;8.15;1.30;;;7.70;99.90;;;;;;5004800;28;20046;-34
2023/12/09 12:18:38;;;;;;;7.35;1.75;;;7.70;99.90;;;;;;5006112;28;20058;-34
2023/12/09 12:21:05;;;;;;;6.22;1.60;;;7.70;99.90;;;;;;5008929;28;20054;-35
2023/12/09 12:23:31;;;;;;;6.20;1.67;;;7.70;99.90;;;;;;4999401;28;20054;-40
2023/12/09 12:25:57;;;;;;;6.32;1.63;;;7.80;99.90;;;;;;5005398;28;20500;-45
2023/12/09 12:28:24;;;;;;;8.07;1.85;;;7.80;99.90;;;;;;5008976;28;20408;-34
2023/12/09 12:30:59;;;;;;;5.45;1.30;;;7.80;99.90;;;;;;5010870;28;20049;-34
2023/12/09 12:33:27;;;;;;;9.55;1.75;;;7.80;99.90;;;;;;5007361;28;20042;-34
2023/12/09 12:35:53;;;;;;;7.68;1.50;;;7.90;99.90;;;;;;5005170;28;20120;-42
2023/12/09 12:38:23;;;;;;;7.20;1.80;;;7.90;99.90;;;;;;5008398;28;20123;-34